Time;durP1;ratioP1;P1;durP2;ratioP2;P2;SDS_P1;SDS_P2;PMS_P1;PMS_P2;Temp;Humidity;BMP_temperature;BMP_pressure;BME280_temperature;BME280_humidity;BME280_pressure;Samples;Min_cycle;Max_cycle;Signal;HPM_P1;HPM_P2
2023/03/18 00:01:49;;;;;;;11.00;8.30;;;;;;;4.71;68.92;100323.75;106830;1264;73884;-38
2023/03/18 00:04:18;;;;;;;11.30;8.50;;;;;;;4.76;68.89;100322.33;106828;1263;61732;-38
2023/03/18 00:06:46;;;;;;;10.20;7.90;;;;;;;4.79;68.71;100322.05;106817;1264;60276;-38
2023/03/18 00:09:18;;;;;;;10.30;8.10;;;;;;;4.75;68.75;100322.91;106801;1268;74407;-38
2023/03/18 00:11:47;;;;;;;11.50;8.40;;;;;;;4.74;68.81;100323.80;107259;1257;69788;-38
2023/03/18 00:14:18;;;;;;;12.30;9.00;;;;;;;4.72;68.99;100324.27;107226;1257;73884;-38
2023/03/18 00:16:50;;;;;;;13.80;9.40;;;;;;;4.73;68.96;100323.45;107215;1257;60805;-38
2023/03/18 00:19:18;;;;;;;14.60;9.30;;;;;;;4.72;69.02;100325.14;107239;1257;61505;-37
2023/03/18 00:21:47;;;;;;;11.50;9.00;;;;;;;4.72;68.97;100324.01;107296;1257;73020;-37
2023/03/18 00:24:16;;;;;;;10.30;8.70;;;;;;;4.72;68.71;100317.07;107154;1257;68565;-37
2023/03/18 00:26:46;;;;;;;9.30;7.20;;;;;;;4.71;68.73;100317.20;107137;1257;73869;-37
2023/03/18 00:29:15;;;;;;;12.80;8.90;;;;;;;4.68;68.62;100313.71;107144;1259;61245;-38
2023/03/18 00:31:45;;;;;;;12.90;9.20;;;;;;;4.61;68.76;100315.61;107212;1257;61646;-39
2023/03/18 00:34:13;;;;;;;11.80;9.50;;;;;;;4.53;68.95;100318.88;107241;1257;74349;-38
2023/03/18 00:36:44;;;;;;;13.90;10.30;;;;;;;4.50;69.14;100321.45;107181;1257;69626;-38
2023/03/18 00:39:13;;;;;;;11.00;8.40;;;;;;;4.49;69.26;100321.63;107493;1253;73733;-38
2023/03/18 00:41:42;;;;;;;12.00;8.90;;;;;;;4.53;69.23;100328.44;107583;1253;60752;-38
2023/03/18 00:44:13;;;;;;;10.90;9.10;;;;;;;4.53;68.99;100326.66;107604;1253;60258;-39
2023/03/18 00:46:42;;;;;;;12.50;9.90;;;;;;;4.52;68.85;100330.28;107620;1254;72786;-38
2023/03/18 00:49:10;;;;;;;12.50;9.50;;;;;;;4.49;68.90;100326.21;107576;1253;69827;-38
2023/03/18 00:51:43;;;;;;;11.90;9.20;;;;;;;4.46;68.83;100328.02;107650;1254;73697;-39
2023/03/18 00:54:13;;;;;;;13.70;10.00;;;;;;;4.41;68.90;100326.55;107608;1253;61137;-38
2023/03/18 00:56:42;;;;;;;11.80;9.40;;;;;;;4.39;68.97;100329.98;107618;1253;60394;-38
2023/03/18 00:59:10;;;;;;;12.20;9.00;;;;;;;4.44;68.84;100323.06;107618;1254;73560;-38
2023/03/18 01:01:40;;;;;;;;;;;;;;;4.50;68.98;100324.73;107616;1253;67732;-38
2023/03/18 01:04:10;;;;;;;13.70;9.60;;;;;;;4.43;69.03;100319.49;107559;1253;73554;-38
2023/03/18 01:06:44;;;;;;;13.40;9.90;;;;;;;4.43;69.32;100322.39;107378;1253;60796;-39
2023/03/18 01:09:13;;;;;;;12.60;10.50;;;;;;;4.42;69.29;100326.64;107576;1253;61668;-38
2023/03/18 01:11:43;;;;;;;14.10;10.10;;;;;;;4.38;69.08;100323.91;107557;1253;74170;-38
2023/03/18 01:14:12;;;;;;;13.70;10.40;;;;;;;4.34;69.24;100327.27;107582;1254;69746;-38
2023/03/18 01:16:43;;;;;;;12.50;9.20;;;;;;;4.33;69.46;100332.58;107513;1253;73820;-38
2023/03/18 01:19:13;;;;;;;12.10;8.70;;;;;;;4.43;69.41;100329.41;107562;1257;60512;-39
2023/03/18 01:21:42;;;;;;;10.70;8.80;;;;;;;4.48;68.97;100332.39;107576;1254;61183;-39
2023/03/18 01:24:12;;;;;;;13.60;9.30;;;;;;;4.46;69.11;100331.68;107558;1253;74203;-39
2023/03/18 01:26:40;;;;;;;11.90;9.70;;;;;;;4.44;69.10;100332.95;106867;1254;1002922;-38
2023/03/18 01:29:09;;;;;;;11.00;9.50;;;;;;;4.40;68.90;100331.89;107612;1256;73534;-38
2023/03/18 01:31:38;;;;;;;14.80;10.20;;;;;;;4.33;69.30;100329.74;107578;1254;59969;-38
2023/03/18 01:34:11;;;;;;;10.60;8.50;;;;;;;4.29;69.27;100332.23;107593;1254;60401;-38
2023/03/18 01:36:52;;;;;;;12.30;9.20;;;;;;;4.33;69.46;100329.86;107554;1254;73956;-38
2023/03/18 01:39:22;;;;;;;13.10;10.00;;;;;;;4.37;69.33;100331.35;107594;1253;70033;-38
2023/03/18 01:41:51;;;;;;;11.90;9.90;;;;;;;4.42;69.45;100334.22;107561;1254;73952;-39
2023/03/18 01:44:26;;;;;;;13.40;10.40;;;;;;;4.46;69.42;100330.81;107532;1252;60569;-39
2023/03/18 01:46:56;;;;;;;13.30;10.50;;;;;;;4.49;68.97;100331.95;107631;1254;61183;-39
2023/03/18 01:49:35;;;;;;;14.80;10.80;;;;;;;4.51;68.94;100334.82;107612;1253;74004;-39
2023/03/18 01:52:05;;;;;;;15.00;11.00;;;;;;;4.54;68.79;100339.09;107543;1253;68533;-39
2023/03/18 01:54:42;;;;;;;12.90;9.70;;;;;;;4.55;68.73;100338.45;107368;1254;73984;-39
2023/03/18 01:57:16;;;;;;;13.90;9.40;;;;;;;4.62;68.60;100343.63;107524;1253;62113;-39
2023/03/18 01:59:45;;;;;;;9.40;7.90;;;;;;;4.65;68.03;100349.22;107350;1254;60860;-39
2023/03/18 02:02:14;;;;;;;11.50;8.70;;;;;;;4.55;67.98;100349.07;107599;1254;73958;-39
2023/03/18 02:04:55;;;;;;;;;;;;;;;4.46;68.33;100349.28;107614;1254;69909;-39
2023/03/18 02:07:27;;;;;;;11.50;8.70;;;;;;;4.29;68.76;100353.96;107559;1254;71797;-39
2023/03/18 02:10:01;;;;;;;13.40;10.10;;;;;;;4.21;69.24;100358.60;107567;1253;60791;-39
2023/03/18 02:12:38;;;;;;;12.90;9.70;;;;;;;4.22;69.68;100357.63;107599;1253;61390;-38
2023/03/18 02:15:10;;;;;;;12.50;9.00;;;;;;;4.22;69.61;100360.30;107532;1254;74007;-39
2023/03/18 02:17:46;;;;;;;10.10;7.60;;;;;;;4.33;69.58;100360.41;107442;1254;69948;-39
2023/03/18 02:20:19;;;;;;;10.10;8.20;;;;;;;4.45;69.31;100365.35;107532;1257;72959;-39
2023/03/18 02:22:51;;;;;;;12.30;9.10;;;;;;;4.51;69.19;100370.52;107462;1254;61558;-39
2023/03/18 02:25:20;;;;;;;13.60;8.40;;;;;;;4.56;68.80;100371.57;107589;1254;61521;-39
2023/03/18 02:28:03;;;;;;;12.00;8.20;;;;;;;4.53;68.47;100370.27;106052;1253;1003525;-38
2023/03/18 02:30:45;;;;;;;12.00;8.10;;;;;;;4.49;68.77;100376.95;107606;1254;69778;-38
2023/03/18 02:33:15;;;;;;;12.10;8.70;;;;;;;4.49;68.78;100375.94;107565;1254;72438;-38
2023/03/18 02:35:44;;;;;;;11.30;7.40;;;;;;;4.49;68.54;100377.23;107623;1253;61149;-39
2023/03/18 02:38:13;;;;;;;12.50;7.70;;;;;;;4.49;68.38;100380.00;107559;1254;61701;-38
2023/03/18 02:40:42;;;;;;;10.50;7.20;;;;;;;4.50;68.49;100381.33;107515;1253;73383;-38
2023/03/18 02:43:20;;;;;;;10.30;7.80;;;;;;;4.50;68.51;100379.88;107631;1254;69768;-38
2023/03/18 02:46:29;;;;;;;10.50;8.00;;;;;;;4.47;68.47;100379.77;107592;1254;73609;-38
2023/03/18 02:48:59;;;;;;;11.80;8.40;;;;;;;4.42;68.29;100379.42;107609;1254;59728;-38
2023/03/18 02:51:28;;;;;;;;;;;;;;;4.36;68.28;100380.96;107636;1254;61334;-38
2023/03/18 02:54:12;;;;;;;12.00;8.70;;;;;;;4.28;68.45;100385.45;107546;1253;74106;-38
2023/03/18 02:56:41;;;;;;;10.10;7.40;;;;;;;4.24;68.77;100384.17;107575;1254;68777;-38
2023/03/18 02:59:13;;;;;;;10.50;7.70;;;;;;;4.31;68.82;100385.50;107535;1254;73661;-38
2023/03/18 03:01:42;;;;;;;10.40;7.60;;;;;;;4.38;68.64;100385.62;107625;1254;59769;-38
2023/03/18 03:04:11;;;;;;;11.20;8.00;;;;;;;4.38;68.66;100388.56;107651;1253;61520;-38
2023/03/18 03:06:41;;;;;;;12.50;8.80;;;;;;;4.41;68.75;100385.94;107562;1253;73823;-38
2023/03/18 03:09:12;;;;;;;13.70;9.30;;;;;;;4.42;68.50;100390.00;107592;1255;68443;-38
2023/03/18 03:11:41;;;;;;;12.20;8.50;;;;;;;4.37;68.47;100385.25;107528;1253;72690;-38
2023/03/18 03:14:14;;;;;;;12.20;9.00;;;;;;;4.37;68.55;100387.71;107548;1253;60450;-38
2023/03/18 03:16:43;;;;;;;10.90;8.20;;;;;;;4.34;68.39;100387.66;107554;1254;61402;-38
2023/03/18 03:19:15;;;;;;;11.70;8.00;;;;;;;4.33;68.27;100387.19;107395;1254;73265;-37
2023/03/18 03:21:47;;;;;;;12.60;8.40;;;;;;;4.34;68.27;100392.45;107574;1254;68912;-38
2023/03/18 03:24:16;;;;;;;10.90;8.50;;;;;;;4.34;68.48;100391.58;107615;1254;73860;-38
2023/03/18 03:26:45;;;;;;;11.00;8.10;;;;;;;4.35;68.43;100392.09;107615;1253;60507;-38
2023/03/18 03:29:14;;;;;;;13.00;7.90;;;;;;;4.36;68.20;100393.16;107651;1254;61569;-38
2023/03/18 03:31:42;;;;;;;11.80;8.20;;;;;;;4.31;68.06;100396.77;107554;1253;74268;-38
2023/03/18 03:34:11;;;;;;;12.70;7.80;;;;;;;4.26;68.24;100397.77;107633;1254;69878;-39
2023/03/18 03:36:40;;;;;;;10.70;7.70;;;;;;;4.28;68.20;100396.55;107633;1254;74108;-38
2023/03/18 03:39:09;;;;;;;9.80;7.80;;;;;;;4.31;68.23;100397.20;107595;1254;61649;-38
2023/03/18 03:41:38;;;;;;;13.50;9.00;;;;;;;4.29;68.04;100397.08;107629;1254;61368;-38
2023/03/18 03:44:07;;;;;;;12.20;8.40;;;;;;;4.26;68.03;100400.30;107530;1253;72372;-38
2023/03/18 03:46:38;;;;;;;10.80;8.30;;;;;;;4.23;68.14;100402.59;107585;1253;68495;-38
2023/03/18 03:49:07;;;;;;;12.80;8.30;;;;;;;4.23;68.24;100398.30;107585;1254;73693;-38
2023/03/18 03:51:36;;;;;;;12.80;8.40;;;;;;;4.22;68.01;100399.86;107599;1254;60818;-38
2023/03/18 03:54:05;;;;;;;11.10;7.90;;;;;;;4.20;68.20;100404.46;107561;1254;61596;-39
2023/03/18 03:56:35;;;;;;;11.60;7.50;;;;;;;4.26;68.16;100401.64;107520;1254;74759;-39
2023/03/18 03:59:04;;;;;;;12.40;8.60;;;;;;;4.37;67.81;100396.84;107605;1254;68643;-38
2023/03/18 04:01:52;;;;;;;10.40;7.30;;;;;;;4.42;67.62;100395.31;107470;1254;73718;-38
2023/03/18 04:04:22;;;;;;;12.50;7.90;;;;;;;4.42;67.66;100391.77;107630;1254;60481;-38
2023/03/18 04:06:52;;;;;;;14.10;8.10;;;;;;;4.41;67.37;100393.02;107602;1253;60341;-38
2023/03/18 04:09:23;;;;;;;14.80;8.90;;;;;;;4.43;67.68;100394.56;107570;1254;75076;-38
2023/03/18 04:11:52;;;;;;;13.10;8.20;;;;;;;4.41;67.49;100393.71;107618;1254;69813;-38
2023/03/18 04:14:20;;;;;;;13.50;8.50;;;;;;;4.38;67.52;100392.64;107500;1253;73692;-39
2023/03/18 04:16:49;;;;;;;12.60;7.30;;;;;;;4.35;67.34;100392.11;105345;1254;1003088;-38
2023/03/18 04:19:19;;;;;;;9.40;5.90;;;;;;;4.37;67.24;100389.77;107581;1254;61662;-38
2023/03/18 04:21:48;;;;;;;8.80;5.90;;;;;;;4.42;67.23;100393.29;107503;1254;74844;-38
2023/03/18 04:24:18;;;;;;;14.30;8.30;;;;;;;4.46;67.28;100391.28;107505;1253;68575;-38
2023/03/18 04:26:47;;;;;;;11.30;8.00;;;;;;;4.48;67.24;100397.42;107620;1253;73898;-38
2023/03/18 04:29:15;;;;;;;11.80;8.10;;;;;;;4.51;66.99;100398.39;107592;1253;60762;-38
2023/03/18 04:31:44;;;;;;;13.50;8.20;;;;;;;4.53;66.87;100397.18;107619;1253;60715;-38
2023/03/18 04:34:13;;;;;;;11.60;8.30;;;;;;;4.50;66.87;100384.24;107504;1254;74851;-38
2023/03/18 04:36:42;;;;;;;11.10;7.80;;;;;;;4.55;66.50;100390.33;107620;1254;69938;-38
2023/03/18 04:39:11;;;;;;;9.40;7.60;;;;;;;4.50;66.38;100393.10;107610;1254;71841;-38
2023/03/18 04:41:47;;;;;;;10.90;7.40;;;;;;;4.43;66.40;100392.57;107522;1254;60397;-38
2023/03/18 04:44:18;;;;;;;11.40;6.90;;;;;;;4.36;66.45;100392.88;107585;1253;61681;-38
2023/03/18 04:46:52;;;;;;;11.10;7.00;;;;;;;4.37;66.51;100396.90;107656;1253;75439;-38
2023/03/18 04:49:21;;;;;;;11.10;7.30;;;;;;;4.37;66.59;100398.73;107567;1253;70076;-38
2023/03/18 04:51:50;;;;;;;13.00;7.30;;;;;;;4.38;66.36;100401.29;107511;1258;73804;-38
2023/03/18 04:54:24;;;;;;;11.50;6.70;;;;;;;4.36;66.02;100404.53;107511;1253;60496;-38
2023/03/18 04:56:54;;;;;;;10.80;6.70;;;;;;;4.31;66.21;100408.36;107497;1253;61357;-38
2023/03/18 04:59:27;;;;;;;13.00;7.20;;;;;;;4.30;66.70;100409.84;107451;1253;74897;-38
2023/03/18 05:01:56;;;;;;;12.20;7.90;;;;;;;4.31;66.53;100413.48;107414;1253;68659;-38
2023/03/18 05:04:25;;;;;;;13.10;7.40;;;;;;;4.29;66.27;100419.15;107386;1253;72853;-39
2023/03/18 05:06:55;;;;;;;10.40;6.60;;;;;;;4.24;66.17;100422.60;107420;1253;60656;-38
2023/03/18 05:09:28;;;;;;;12.20;6.40;;;;;;;4.31;66.10;100424.27;107422;1254;61325;-38
2023/03/18 05:12:00;;;;;;;10.40;6.10;;;;;;;4.36;66.06;100423.92;107381;1254;75125;-38
2023/03/18 05:14:33;;;;;;;10.70;6.50;;;;;;;4.37;65.88;100420.68;107390;1254;69804;-38
2023/03/18 05:17:03;;;;;;;11.30;6.70;;;;;;;4.36;65.72;100420.27;107385;1254;73509;-38
2023/03/18 05:19:37;;;;;;;11.50;6.90;;;;;;;4.32;65.40;100422.75;107352;1254;60735;-38
2023/03/18 05:22:15;;;;;;;11.00;6.90;;;;;;;4.26;65.67;100423.80;107460;1253;60389;-38
2023/03/18 05:24:47;;;;;;;12.50;7.00;;;;;;;4.20;65.81;100421.33;106728;1253;1005403;-38
2023/03/18 05:27:17;;;;;;;10.20;7.30;;;;;;;4.16;65.86;100423.09;107427;1253;69987;-38
2023/03/18 05:29:54;;;;;;;10.80;6.60;;;;;;;4.11;65.93;100426.40;107379;1253;73757;-38
2023/03/18 05:32:34;;;;;;;11.40;7.00;;;;;;;4.14;66.06;100428.81;107494;1253;60559;-38
2023/03/18 05:35:04;;;;;;;11.10;6.60;;;;;;;4.12;65.92;100439.04;107391;1253;60618;-38
2023/03/18 05:37:38;;;;;;;11.80;6.70;;;;;;;4.08;66.17;100437.86;107515;1253;74845;-38
2023/03/18 05:40:10;;;;;;;13.20;6.90;;;;;;;4.06;66.48;100440.35;107578;1253;68698;-38
2023/03/18 05:42:40;;;;;;;9.10;6.80;;;;;;;4.09;66.77;100438.55;107498;1254;73627;-38
2023/03/18 05:45:32;;;;;;;10.60;6.50;;;;;;;4.13;66.59;100441.17;107487;1253;60632;-38
2023/03/18 05:48:02;;;;;;;13.10;7.10;;;;;;;4.14;66.75;100441.92;107657;1253;61320;-39
2023/03/18 05:50:40;;;;;;;10.40;6.60;;;;;;;4.21;66.62;100439.23;107461;1253;73569;-38
2023/03/18 05:53:11;;;;;;;11.20;6.60;;;;;;;4.36;66.53;100442.23;107546;1253;69823;-39
2023/03/18 05:55:41;;;;;;;14.00;6.70;;;;;;;4.43;66.22;100443.52;107454;1254;72657;-39
2023/03/18 05:58:10;;;;;;;13.10;7.00;;;;;;;4.47;66.23;100445.45;107371;1253;60428;-38
2023/03/18 06:00:40;;;;;;;;;;;;;;;4.51;65.70;100446.45;107343;1253;61426;-39
2023/03/18 06:03:10;;;;;;;9.80;6.60;;;;;;;4.46;65.66;100446.32;107352;1253;74966;-38
2023/03/18 06:05:39;;;;;;;11.00;7.10;;;;;;;4.40;65.69;100448.34;107414;1254;69685;-38
2023/03/18 06:08:08;;;;;;;12.20;6.10;;;;;;;4.40;65.80;100450.08;107533;1254;73814;-38
2023/03/18 06:10:39;;;;;;;10.30;6.80;;;;;;;4.40;65.54;100453.23;107336;1254;59626;-38
2023/03/18 06:13:09;;;;;;;11.60;6.60;;;;;;;4.41;65.53;100451.08;107482;1258;61477;-38
2023/03/18 06:15:38;;;;;;;9.90;5.80;;;;;;;4.44;65.59;100450.33;107499;1254;73520;-38
2023/03/18 06:18:08;;;;;;;9.10;5.30;;;;;;;4.51;65.57;100448.77;107602;1253;69854;-38
2023/03/18 06:20:37;;;;;;;8.80;6.30;;;;;;;4.51;65.35;100445.98;107579;1254;72611;-39
2023/03/18 06:23:09;;;;;;;9.30;6.80;;;;;;;4.43;65.07;100445.95;107570;1253;60636;-39
2023/03/18 06:25:40;;;;;;;;;;;;;;;4.34;65.11;100446.19;107607;1253;62295;-39
2023/03/18 06:28:08;;;;;;;9.50;6.80;;;;;;;4.22;65.56;100447.95;107501;1258;74864;-39
2023/03/18 06:30:38;;;;;;;10.50;7.00;;;;;;;4.17;66.03;100445.79;107548;1254;69985;-39
2023/03/18 06:33:07;;;;;;;8.70;6.00;;;;;;;4.17;66.08;100443.86;107616;1254;73919;-39
2023/03/18 06:35:38;;;;;;;10.20;6.70;;;;;;;4.26;66.37;100444.70;107573;1254;60683;-39
2023/03/18 06:38:09;;;;;;;9.90;5.70;;;;;;;4.34;66.04;100442.80;107540;1254;61243;-39
2023/03/18 06:40:39;;;;;;;10.60;6.80;;;;;;;4.39;65.69;100444.65;107609;1253;74765;-39
2023/03/18 06:43:07;;;;;;;8.00;5.50;;;;;;;4.44;65.79;100444.48;107663;1254;68308;-39
2023/03/18 06:45:38;;;;;;;12.00;6.90;;;;;;;4.49;65.70;100446.48;107597;1254;73662;-39
2023/03/18 06:48:09;;;;;;;11.40;8.20;;;;;;;4.51;65.37;100446.35;107627;1254;60614;-39
2023/03/18 06:50:42;;;;;;;11.60;7.70;;;;;;;4.51;65.09;100448.07;107582;1254;61296;-39
2023/03/18 06:53:17;;;;;;;9.60;6.90;;;;;;;4.52;65.27;100450.85;107599;1254;74718;-39
2023/03/18 06:55:47;;;;;;;13.60;6.90;;;;;;;4.58;65.27;100451.13;107633;1254;70500;-39
2023/03/18 06:58:17;;;;;;;11.90;7.10;;;;;;;4.67;64.93;100444.85;107594;1257;73607;-39
2023/03/18 07:00:51;;;;;;;10.80;7.50;;;;;;;4.71;64.69;100444.79;107567;1254;60460;-39
2023/03/18 07:03:24;;;;;;;12.20;8.20;;;;;;;4.73;64.56;100447.86;107655;1254;61338;-39
2023/03/18 07:05:56;;;;;;;13.40;8.30;;;;;;;4.73;64.48;100442.66;107594;1254;75000;-38
2023/03/18 07:08:26;;;;;;;11.90;8.80;;;;;;;4.74;64.54;100445.39;107541;1254;68666;-38
2023/03/18 07:10:54;;;;;;;14.50;8.30;;;;;;;4.75;64.59;100448.86;107587;1258;73827;-38
2023/03/18 07:13:25;;;;;;;12.90;8.90;;;;;;;4.79;64.66;100446.06;107563;1254;60387;-38
2023/03/18 07:15:59;;;;;;;12.30;8.40;;;;;;;4.83;64.33;100448.46;107508;1254;61546;-38
2023/03/18 07:18:28;;;;;;;15.70;8.50;;;;;;;4.93;64.01;100449.10;107564;1254;74870;-38
2023/03/18 07:21:03;;;;;;;10.90;8.20;;;;;;;4.99;63.79;100446.73;107573;1254;70221;-38
2023/03/18 07:23:33;;;;;;;12.20;9.30;;;;;;;4.98;63.75;100449.27;107615;1253;73864;-38
2023/03/18 07:26:01;;;;;;;15.10;8.90;;;;;;;4.99;63.86;100445.83;107576;1254;60424;-37
2023/03/18 07:28:31;;;;;;;13.50;8.50;;;;;;;5.02;64.01;100448.14;107551;1254;60240;-37
2023/03/18 07:31:00;;;;;;;12.00;7.40;;;;;;;5.05;64.03;100446.30;107545;1258;75050;-38
2023/03/18 07:33:33;;;;;;;12.20;8.00;;;;;;;5.12;63.93;100448.23;107603;1254;69902;-37
2023/03/18 07:36:02;;;;;;;10.90;7.70;;;;;;;5.18;63.53;100447.99;107558;1253;73940;-37
2023/03/18 07:38:30;;;;;;;11.80;7.80;;;;;;;5.24;63.56;100450.38;107529;1254;60592;-38
2023/03/18 07:41:00;;;;;;;10.80;7.60;;;;;;;5.32;63.63;100450.66;107614;1254;60434;-37
2023/03/18 07:43:29;;;;;;;13.30;8.40;;;;;;;5.40;63.23;100457.11;107609;1253;74961;-38
2023/03/18 07:46:04;;;;;;;13.40;7.80;;;;;;;5.51;62.72;100460.07;107639;1254;68569;-37
2023/03/18 07:48:34;;;;;;;13.00;8.50;;;;;;;5.57;62.75;100464.09;107649;1257;73862;-37
2023/03/18 07:51:02;;;;;;;12.80;7.80;;;;;;;5.59;62.17;100458.52;107612;1254;61198;-37
2023/03/18 07:53:32;;;;;;;10.70;7.30;;;;;;;5.56;61.84;100455.50;107605;1254;61512;-39
2023/03/18 07:56:02;;;;;;;10.80;7.40;;;;;;;5.50;61.91;100457.24;107655;1254;75005;-39
2023/03/18 07:58:37;;;;;;;12.90;8.00;;;;;;;5.45;61.82;100457.02;107599;1254;69270;-39
2023/03/18 08:01:06;;;;;;;12.80;7.90;;;;;;;5.41;62.15;100455.88;107618;1254;73828;-39
2023/03/18 08:03:35;;;;;;;10.60;7.90;;;;;;;5.38;62.28;100455.96;107620;1254;60755;-39
2023/03/18 08:06:05;;;;;;;12.60;8.50;;;;;;;5.39;62.60;100452.45;107678;1254;60270;-39
2023/03/18 08:08:33;;;;;;;10.90;7.10;;;;;;;5.41;62.59;100455.36;107639;1254;73442;-39
2023/03/18 08:11:05;;;;;;;11.90;7.70;;;;;;;5.50;62.45;100453.95;107619;1255;69968;-39
2023/03/18 08:13:37;;;;;;;13.60;7.90;;;;;;;5.59;62.58;100452.06;107599;1257;72648;-39
2023/03/18 08:16:06;;;;;;;11.50;8.40;;;;;;;5.68;62.21;100451.56;107632;1254;61602;-39
2023/03/18 08:18:36;;;;;;;13.50;8.30;;;;;;;5.74;61.99;100453.55;107644;1254;61190;-38
2023/03/18 08:21:06;;;;;;;14.60;8.10;;;;;;;5.80;61.59;100455.35;107629;1254;75215;-39
2023/03/18 08:23:35;;;;;;;14.20;9.20;;;;;;;5.85;61.47;100459.23;107620;1254;69852;-39
2023/03/18 08:26:06;;;;;;;10.70;7.70;;;;;;;5.87;61.49;100461.36;107617;1254;71478;-38
2023/03/18 08:28:35;;;;;;;12.40;8.00;;;;;;;5.88;61.74;100455.98;107582;1254;60801;-38
2023/03/18 08:31:09;;;;;;;13.60;7.80;;;;;;;5.98;60.85;100461.46;107566;1254;61259;-38
2023/03/18 08:33:38;;;;;;;11.30;8.60;;;;;;;5.99;60.89;100466.52;107570;1258;75182;-39
2023/03/18 08:36:07;;;;;;;10.90;8.70;;;;;;;6.01;60.91;100463.77;107578;1254;70027;-39
2023/03/18 08:38:38;;;;;;;11.10;8.00;;;;;;;6.04;60.88;100465.33;107566;1254;73653;-39
2023/03/18 08:41:06;;;;;;;12.90;8.40;;;;;;;6.07;60.76;100465.73;107621;1254;62405;-39
2023/03/18 08:43:36;;;;;;;13.90;8.80;;;;;;;6.14;60.68;100460.95;107615;1259;61168;-39
2023/03/18 08:46:07;;;;;;;14.60;7.90;;;;;;;6.18;60.63;100461.55;107519;1254;75109;-39
2023/03/18 08:48:36;;;;;;;11.00;7.30;;;;;;;6.20;60.54;100451.34;107547;1257;69647;-39
2023/03/18 08:51:09;;;;;;;12.30;8.10;;;;;;;6.30;60.21;100453.53;107568;1257;73977;-38
2023/03/18 08:53:38;;;;;;;13.80;7.70;;;;;;;6.35;59.97;100449.26;107608;1257;60757;-39
2023/03/18 08:56:13;;;;;;;11.90;7.70;;;;;;;6.48;60.03;100451.40;107620;1254;60326;-39
2023/03/18 08:58:44;;;;;;;10.90;7.70;;;;;;;6.70;60.03;100441.92;107640;1254;73966;-38
2023/03/18 09:01:13;;;;;;;11.20;7.80;;;;;;;6.93;59.54;100439.73;107594;1254;69907;-38
2023/03/18 09:03:43;;;;;;;10.30;7.20;;;;;;;7.14;59.08;100437.41;107584;1257;73848;-38
2023/03/18 09:06:12;;;;;;;10.10;7.00;;;;;;;7.28;58.26;100436.52;107510;1254;60752;-39
2023/03/18 09:08:41;;;;;;;15.60;7.00;;;;;;;7.33;58.12;100436.29;107530;1257;61525;-38
2023/03/18 09:11:12;;;;;;;11.00;6.60;;;;;;;7.34;57.66;100436.90;107615;1254;73303;-38
2023/03/18 09:13:40;;;;;;;12.00;6.50;;;;;;;7.36;57.87;100436.42;107635;1255;67528;-38
2023/03/18 09:16:13;;;;;;;11.00;6.60;;;;;;;7.38;57.94;100440.73;107602;1252;73895;-38
2023/03/18 09:18:41;;;;;;;7.60;6.00;;;;;;;7.45;57.91;100438.61;107590;1256;59679;-38
2023/03/18 09:21:13;;;;;;;8.00;6.10;;;;;;;7.57;58.02;100437.27;107583;1254;60438;-38
2023/03/18 09:23:42;;;;;;;5.60;4.20;;;;;;;7.84;57.81;100438.66;107595;1254;75173;-37
2023/03/18 09:26:11;;;;;;;8.40;5.80;;;;;;;8.21;57.41;100433.56;107625;1254;68614;-38
2023/03/18 09:28:42;;;;;;;8.30;5.50;;;;;;;8.53;56.27;100430.55;107610;1257;73492;-38
2023/03/18 09:31:12;;;;;;;6.80;4.80;;;;;;;8.73;55.53;100432.04;107639;1259;60750;-38
2023/03/18 09:33:42;;;;;;;8.30;5.20;;;;;;;8.90;54.77;100431.39;107610;1253;60527;-39
2023/03/18 09:36:11;;;;;;;7.60;5.40;;;;;;;9.08;54.50;100429.90;107637;1254;75472;-39
2023/03/18 09:38:41;;;;;;;6.10;4.60;;;;;;;9.24;54.09;100435.19;107626;1254;69926;-38
2023/03/18 09:41:43;;;;;;;8.40;5.20;;;;;;;9.29;53.05;100426.89;107605;1259;73766;-38
2023/03/18 09:44:32;;;;;;;7.30;5.10;;;;;;;9.19;53.14;100434.83;107389;1254;61017;-38
2023/03/18 09:47:07;;;;;;;10.40;5.30;;;;;;;9.12;53.00;100430.68;107627;1253;60340;-38
2023/03/18 09:50:09;;;;;;;8.80;4.60;;;;;;;9.02;53.04;100427.05;107605;1254;73909;-39
2023/03/18 09:53:04;;;;;;;6.20;5.00;;;;;;;8.85;53.01;100432.56;107653;1257;67526;-38
2023/03/18 09:55:39;;;;;;;6.20;4.40;;;;;;;8.59;53.55;100438.74;107596;1256;73845;-38
2023/03/18 09:58:39;;;;;;;6.10;4.70;;;;;;;8.43;54.33;100438.68;107601;1256;60493;-38
2023/03/18 10:01:08;;;;;;;5.80;4.10;;;;;;;8.41;54.72;100437.33;107604;1253;61260;-38
2023/03/18 10:03:45;;;;;;;7.60;4.10;;;;;;;8.31;54.81;100434.27;107411;1254;75542;-38
2023/03/18 10:06:31;;;;;;;6.80;4.60;;;;;;;8.34;55.26;100445.05;107608;1257;68194;-38
2023/03/18 10:09:00;;;;;;;6.20;4.30;;;;;;;8.25;55.08;100443.39;107501;1259;73998;-38
2023/03/18 10:11:33;;;;;;;6.40;4.20;;;;;;;8.18;55.42;100443.98;107646;1254;60450;-38
2023/03/18 10:14:13;;;;;;;6.40;4.40;;;;;;;8.14;55.71;100445.53;107587;1257;61094;-39
2023/03/18 10:16:58;;;;;;;6.60;4.20;;;;;;;8.16;55.71;100442.84;107593;1257;74001;-39
2023/03/18 10:19:27;;;;;;;6.50;4.40;;;;;;;8.14;55.76;100438.42;107509;1253;69630;-39
2023/03/18 10:22:14;;;;;;;5.40;4.00;;;;;;;8.08;55.72;100442.14;107686;1259;72144;-38
2023/03/18 10:24:59;;;;;;;8.20;4.20;;;;;;;8.00;56.13;100444.38;107604;1254;60435;-38
2023/03/18 10:27:44;;;;;;;7.50;4.30;;;;;;;7.90;55.89;100436.55;106095;1255;1003084;-37
2023/03/18 10:30:35;;;;;;;6.20;3.70;;;;;;;7.76;56.59;100436.20;107593;1253;74857;-38
2023/03/18 10:33:17;;;;;;;6.30;4.00;;;;;;;7.72;57.14;100436.98;107547;1254;69933;-38
2023/03/18 10:36:28;;;;;;;5.60;4.40;;;;;;;7.75;57.46;100438.39;107560;1254;74019;-38
2023/03/18 10:38:57;;;;;;;5.90;4.10;;;;;;;7.87;57.22;100441.15;107387;1254;59711;-38
2023/03/18 10:41:31;;;;;;;5.90;4.70;;;;;;;7.92;57.31;100437.23;107298;1259;61535;-38
2023/03/18 10:44:09;;;;;;;7.60;4.30;;;;;;;7.97;56.54;100431.89;107538;1259;75010;-38
2023/03/18 10:46:38;;;;;;;9.20;4.40;;;;;;;7.93;56.54;100431.58;107501;1258;69901;-38
2023/03/18 10:49:20;;;;;;;6.40;4.40;;;;;;;7.89;56.51;100429.23;107400;1254;72398;-38
2023/03/18 10:51:52;;;;;;;5.00;3.80;;;;;;;7.84;56.61;100429.27;107521;1254;60547;-38
2023/03/18 10:54:38;;;;;;;8.90;3.90;;;;;;;7.81;56.88;100428.34;107539;1254;61605;-38
2023/03/18 10:57:13;;;;;;;7.10;4.50;;;;;;;7.82;57.10;100423.98;107560;1255;74928;-38
2023/03/18 10:59:44;;;;;;;5.00;3.80;;;;;;;7.81;56.87;100418.20;107569;1258;68809;-38
2023/03/18 11:02:28;;;;;;;8.00;4.40;;;;;;;7.73;57.07;100417.95;107516;1254;73986;-38
2023/03/18 11:05:10;;;;;;;6.70;3.60;;;;;;;7.76;57.32;100415.81;107500;1254;60451;-39
2023/03/18 11:08:07;;;;;;;6.30;3.90;;;;;;;7.83;57.41;100415.27;107509;1259;61584;-39
2023/03/18 11:10:39;;;;;;;4.40;3.40;;;;;;;7.93;57.38;100418.48;107459;1255;74901;-39
2023/03/18 11:13:16;;;;;;;5.00;3.30;;;;;;;8.03;57.53;100417.48;107486;1254;69964;-39
2023/03/18 11:15:50;;;;;;;5.10;3.50;;;;;;;8.15;57.25;100413.86;107499;1254;73891;-39
2023/03/18 11:18:23;;;;;;;3.90;3.10;;;;;;;8.24;56.26;100410.79;107456;1255;59722;-39
2023/03/18 11:20:59;;;;;;;4.80;3.30;;;;;;;8.25;56.29;100415.51;107513;1254;61518;-39
2023/03/18 11:23:55;;;;;;;4.70;3.00;;;;;;;8.26;56.56;100412.18;107540;1258;75129;-40
2023/03/18 11:26:20;;;;;;;3.90;3.20;;;;;;;8.38;55.92;100408.40;107516;1258;70371;-38
2023/03/18 11:28:55;;;;;;;;;;;;;;;8.41;55.60;100408.33;107547;1259;73716;-38
2023/03/18 11:31:23;;;;;;;5.40;3.50;;;;;;;8.33;55.44;100404.23;106803;1259;1003354;-38
2023/03/18 11:33:57;;;;;;;5.70;3.70;;;;;;;8.25;55.53;100404.20;107517;1255;61253;-37
2023/03/18 11:36:26;;;;;;;4.70;3.50;;;;;;;8.26;56.05;100405.70;107559;1257;75037;-38
2023/03/18 11:38:58;;;;;;;6.30;4.00;;;;;;;8.26;55.39;100409.10;107549;1259;69902;-38
2023/03/18 11:41:27;;;;;;;6.40;4.00;;;;;;;8.22;55.59;100408.93;107586;1258;73559;-38
2023/03/18 11:43:58;;;;;;;4.40;3.50;;;;;;;8.19;55.64;100407.02;107481;1254;60757;-38